Time;durP1;ratioP1;P1;durP2;ratioP2;P2;SDS_P1;SDS_P2;PMS_P1;PMS_P2;Temp;Humidity;BMP_temperature;BMP_pressure;BME280_temperature;BME280_humidity;BME280_pressure;Samples;Min_cycle;Max_cycle;Signal;HPM_P1;HPM_P2
2021/06/01 00:01:52;;;;;;;8.40;3.37;;;;;;;8.94;57.92;99935.86;1786942;78;21000;-65
2021/06/01 00:04:20;;;;;;;7.35;3.22;;;;;;;9.00;57.96;99944.74;1785119;79;21047;-66
2021/06/01 00:06:48;;;;;;;5.35;3.65;;;;;;;9.05;57.97;99938.92;1780449;78;21075;-66
2021/06/01 00:09:19;;;;;;;5.17;3.10;;;;;;;9.09;57.97;99932.67;1782229;78;21016;-65
2021/06/01 00:11:46;;;;;;;7.72;3.67;;;;;;;9.14;57.96;99934.66;1782213;78;21110;-66
2021/06/01 00:14:14;;;;;;;6.87;3.12;;;;;;;9.19;57.94;99941.84;1782115;78;21114;-66
2021/06/01 00:16:42;;;;;;;5.47;3.37;;;;;;;9.24;57.98;99949.47;1786195;79;20920;-66
2021/06/01 00:19:09;;;;;;;7.12;3.10;;;;;;;9.26;58.05;99949.42;1781592;79;21451;-66
2021/06/01 00:21:37;;;;;;;6.30;2.95;;;;;;;9.28;57.94;99954.13;1787465;78;21639;-66
2021/06/01 00:24:07;;;;;;;5.70;2.40;;;;;;;9.36;57.98;99950.78;1778883;78;21013;-66
2021/06/01 00:26:35;;;;;;;4.60;2.90;;;;;;;9.43;57.94;99943.09;1786943;78;20952;-66
2021/06/01 00:29:01;;;;;;;7.00;3.10;;;;;;;9.48;58.08;99928.59;1776300;78;21070;-66
2021/06/01 00:31:28;;;;;;;6.95;3.10;;;;;;;9.52;58.23;99927.13;1775097;79;21665;-66
2021/06/01 00:33:55;;;;;;;5.30;3.12;;;;;;;9.53;58.37;99914.47;1786707;79;21053;-66
2021/06/01 00:36:22;;;;;;;5.40;3.58;;;;;;;9.53;58.48;99917.08;1781140;79;21592;-66
2021/06/01 00:38:49;;;;;;;6.78;3.67;;;;;;;9.53;58.53;99913.62;1779864;79;20988;-66
2021/06/01 00:41:16;;;;;;;6.03;3.42;;;;;;;9.49;58.71;99902.45;1785554;79;21020;-66
2021/06/01 00:43:43;;;;;;;;;;;;;;;9.44;58.89;99897.91;1782697;79;22513;-66
2021/06/01 00:46:09;;;;;;;6.95;3.33;;;;;;;9.40;59.24;99897.61;1783908;78;20246;-66
2021/06/01 00:48:36;;;;;;;6.43;3.43;;;;;;;9.38;59.17;99889.88;1789082;78;20988;-66
2021/06/01 00:51:03;;;;;;;5.80;3.30;;;;;;;9.40;59.24;99875.46;1780399;79;21004;-66
2021/06/01 00:53:30;;;;;;;11.00;3.75;;;;;;;9.40;59.37;99853.31;1785927;78;20929;-66
2021/06/01 00:55:57;;;;;;;7.90;2.80;;;;;;;9.38;59.27;99829.06;1781014;79;22372;-66
2021/06/01 00:58:28;;;;;;;11.73;2.90;;;;;;;9.35;59.34;99826.58;1780781;78;21057;-66
2021/06/01 01:03:19;;;;;;;4.35;2.27;;;;;;;9.37;59.34;99811.74;1787545;79;21134;-66
2021/06/01 01:05:51;;;;;;;4.60;2.17;;;;;;;9.40;59.47;99804.64;1774706;79;20993;-66
2021/06/01 01:11:04;;;;;;;;;;;;;;;9.50;59.40;99810.80;1786172;79;20967;-66
2021/06/01 01:13:45;;;;;;;7.00;2.17;;;;;;;9.56;59.53;99823.11;1772680;79;20545;-66
2021/06/01 01:16:14;;;;;;;4.33;2.00;;;;;;;9.64;59.39;99830.62;1788386;78;21636;-66
2021/06/01 01:18:45;;;;;;;3.58;2.20;;;;;;;9.73;59.38;99835.44;1783402;78;21028;-66
2021/06/01 01:21:37;;;;;;;3.83;2.15;;;;;;;9.83;59.31;99841.09;1788230;78;21589;-66
2021/06/01 01:24:30;;;;;;;5.30;2.30;;;;;;;9.92;59.23;99835.52;1758102;78;20987;-66
2021/06/01 01:27:29;;;;;;;5.22;2.60;;;;;;;10.00;59.34;99837.34;1780568;78;21585;-66
2021/06/01 01:30:01;;;;;;;4.28;2.42;;;;;;;10.05;59.33;99832.78;1783391;79;20998;-66
2021/06/01 01:33:03;;;;;;;3.95;2.12;;;;;;;10.08;59.31;99837.86;1779142;79;21058;-66
2021/06/01 01:35:33;;;;;;;4.25;2.30;;;;;;;10.12;59.31;99833.81;1790101;79;21060;-66
2021/06/01 01:38:00;;;;;;;5.20;2.35;;;;;;;10.16;59.30;99833.59;1782039;78;21000;-66
2021/06/01 01:40:31;;;;;;;5.08;2.22;;;;;;;10.19;59.26;99827.39;1779530;78;22161;-66
2021/06/01 01:43:02;;;;;;;5.40;2.70;;;;;;;10.20;59.28;99829.11;1783500;79;21600;-66
2021/06/01 01:45:33;;;;;;;7.97;2.58;;;;;;;10.22;59.27;99832.47;1785187;78;21561;-66
2021/06/01 01:50:49;;;;;;;5.67;2.50;;;;;;;10.21;59.32;99849.06;1785897;79;20987;-66
2021/06/01 01:53:20;;;;;;;8.23;2.40;;;;;;;10.21;59.33;99872.55;1780970;78;20999;-66
2021/06/01 01:55:49;;;;;;;3.33;2.30;;;;;;;10.21;59.38;99880.38;1780295;79;21579;-65
2021/06/01 01:58:19;;;;;;;4.75;2.75;;;;;;;10.23;59.40;99881.16;1749987;79;20947;-66
2021/06/01 02:00:48;;;;;;;9.65;2.58;;;;;;;10.24;59.43;99882.84;1782900;79;21023;-66
2021/06/01 02:03:16;;;;;;;7.28;2.50;;;;;;;10.25;59.50;99875.39;1787831;78;21063;-66
2021/06/01 02:05:45;;;;;;;5.95;3.00;;;;;;;10.22;59.58;99867.70;1786602;79;20985;-66
2021/06/01 02:08:12;;;;;;;5.97;2.87;;;;;;;10.19;59.73;99850.88;1785446;78;21048;-66
2021/06/01 02:10:41;;;;;;;6.87;3.08;;;;;;;10.14;59.82;99839.79;1781762;78;21584;-66
2021/06/01 02:13:09;;;;;;;7.47;2.77;;;;;;;10.09;59.93;99825.20;1792649;79;21039;-66
2021/06/01 02:15:38;;;;;;;5.55;2.25;;;;;;;10.05;60.02;99818.43;1777416;79;20953;-66
2021/06/01 02:18:05;;;;;;;5.20;2.63;;;;;;;9.99;60.07;99808.23;1783873;79;21588;-66
2021/06/01 02:20:32;;;;;;;9.38;2.90;;;;;;;9.93;60.20;99798.08;1779915;79;20984;-66
2021/06/01 02:26:01;;;;;;;5.80;2.75;;;;;;;9.85;60.40;99758.44;1783669;79;21070;-66
2021/06/01 02:28:47;;;;;;;6.12;3.30;;;;;;;9.85;60.56;99737.58;1782995;78;28656;-66
2021/06/01 02:31:25;;;;;;;11.83;3.37;;;;;;;9.90;60.73;99751.27;1776778;79;20995;-66
2021/06/01 02:33:54;;;;;;;5.92;2.47;;;;;;;9.93;60.58;99740.70;1778762;79;21534;-66
2021/06/01 02:36:21;;;;;;;3.17;2.52;;;;;;;9.94;60.59;99705.89;1772788;79;20980;-65
2021/06/01 02:38:49;;;;;;;3.98;2.20;;;;;;;9.95;60.64;99706.73;1774804;79;21436;-65
2021/06/01 02:41:17;;;;;;;3.62;2.37;;;;;;;9.98;60.70;99714.42;1778924;79;21602;-65
2021/06/01 02:43:44;;;;;;;4.55;2.50;;;;;;;10.01;60.75;99702.08;1772968;78;21329;-65
2021/06/01 02:46:11;;;;;;;7.17;3.72;;;;;;;10.07;60.78;99700.48;1779024;79;21033;-65
2021/06/01 02:48:38;;;;;;;4.03;3.00;;;;;;;10.11;60.81;99700.34;1776707;78;20982;-65
2021/06/01 02:51:15;;;;;;;6.55;2.58;;;;;;;10.14;60.89;99701.51;1776510;79;21145;-65
2021/06/01 02:53:49;;;;;;;6.85;3.00;;;;;;;10.18;60.95;99695.25;1782124;79;20976;-65
2021/06/01 02:56:17;;;;;;;7.37;3.17;;;;;;;10.19;61.03;99699.54;1778063;79;21032;-66
2021/06/01 02:58:48;;;;;;;4.67;2.98;;;;;;;10.22;61.01;99709.83;1780839;78;21631;-66
2021/06/01 03:01:19;;;;;;;6.85;3.05;;;;;;;10.26;61.08;99708.80;1774267;78;21621;-66
2021/06/01 03:03:53;;;;;;;6.35;3.00;;;;;;;10.30;61.16;99711.66;1780494;79;21024;-66
2021/06/01 03:06:23;;;;;;;8.35;2.87;;;;;;;10.35;61.17;99712.30;1772851;79;20956;-65
2021/06/01 03:08:50;;;;;;;6.25;3.12;;;;;;;10.41;61.22;99718.53;1775960;79;20953;-65
2021/06/01 03:11:20;;;;;;;4.55;3.35;;;;;;;10.49;61.31;99726.86;1758895;79;20992;-66
2021/06/01 03:13:49;;;;;;;9.23;3.17;;;;;;;10.62;61.40;99736.75;1776897;78;21066;-65
2021/06/01 03:16:17;;;;;;;5.65;2.62;;;;;;;10.73;61.43;99737.92;1760993;79;21349;-66
2021/06/01 03:18:44;;;;;;;10.25;3.70;;;;;;;10.90;61.51;99739.73;1767941;79;21038;-66
2021/06/01 03:21:12;;;;;;;;;;;;;;;11.09;61.51;99750.57;1778470;78;21039;-66
2021/06/01 03:23:40;;;;;;;3.50;2.30;;;;;;;11.24;61.54;99744.61;1780086;79;20163;-66
2021/06/01 03:26:07;;;;;;;7.05;2.95;;;;;;;11.35;61.46;99744.92;1781673;78;20971;-66
2021/06/01 03:28:34;;;;;;;5.72;2.98;;;;;;;11.45;61.47;99730.06;1776764;79;21024;-66
2021/06/01 03:31:01;;;;;;;8.88;3.12;;;;;;;11.56;61.45;99725.14;1764651;79;20998;-66
2021/06/01 03:33:29;;;;;;;;;;;;;;;11.68;61.56;99716.67;1754545;79;21031;-66
2021/06/01 03:35:55;;;;;;;5.72;3.33;;;;;;;11.81;61.60;99722.94;1753593;79;20161;-66
2021/06/01 03:38:22;;;;;;;8.05;2.62;;;;;;;12.11;62.00;99714.44;1755703;79;21003;-66
2021/06/01 03:40:49;;;;;;;4.42;2.77;;;;;;;13.69;62.34;99712.48;1751047;79;21433;-66
2021/06/01 03:43:16;;;;;;;4.67;3.02;;;;;;;14.62;60.52;99703.22;1752169;80;21004;-66
2021/06/01 03:45:43;;;;;;;8.65;2.95;;;;;;;14.48;60.27;99708.01;1740711;80;21601;-66
2021/06/01 03:48:10;;;;;;;6.55;2.90;;;;;;;14.42;60.05;99710.56;1750842;79;21653;-66
2021/06/01 03:50:36;;;;;;;6.37;3.07;;;;;;;14.22;60.37;99707.88;1751219;80;21015;-66
2021/06/01 03:53:04;;;;;;;6.75;3.20;;;;;;;14.10;60.38;99705.55;1750414;80;22334;-66
2021/06/01 03:55:31;;;;;;;13.75;3.75;;;;;;;14.04;60.46;99705.94;1751376;80;21011;-66
2021/06/01 03:57:57;;;;;;;7.80;3.72;;;;;;;14.08;60.59;99720.55;1731051;80;20987;-66
2021/06/01 04:00:31;;;;;;;8.43;3.22;;;;;;;14.12;60.56;99713.82;1753473;80;21012;-66
2021/06/01 04:03:00;;;;;;;5.10;2.87;;;;;;;14.03;60.42;99709.51;1743938;80;21572;-66
2021/06/01 04:07:29;;;;;;;6.03;3.87;;;;;;;13.94;60.23;99722.34;1835515;77;22751;-65
2021/06/01 04:09:56;;;;;;;10.70;3.70;;;;;;;13.78;60.08;99718.48;1810730;78;22687;-66
2021/06/01 04:12:22;;;;;;;15.18;3.20;;;;;;;13.59;60.27;99714.83;1775961;80;21306;-65
2021/06/01 04:14:49;;;;;;;12.47;3.23;;;;;;;13.56;60.54;99715.86;1750228;80;21037;-65
2021/06/01 04:17:16;;;;;;;10.70;3.00;;;;;;;13.58;60.59;99711.37;1773217;80;21076;-65
2021/06/01 04:19:43;;;;;;;7.05;3.05;;;;;;;13.56;60.42;99710.61;1768012;79;21013;-66
2021/06/01 04:22:10;;;;;;;6.27;3.20;;;;;;;13.48;60.53;99715.47;1768376;78;20976;-65
2021/06/01 04:24:36;;;;;;;10.40;3.47;;;;;;;13.44;60.68;99708.70;1750575;81;21091;-65
2021/06/01 04:27:04;;;;;;;5.13;3.27;;;;;;;13.40;60.66;99701.95;1729105;80;20954;-65
2021/06/01 04:29:31;;;;;;;7.60;3.08;;;;;;;13.38;60.75;99706.44;1751901;80;21040;-66
2021/06/01 04:31:58;;;;;;;5.65;3.90;;;;;;;13.37;60.69;99712.63;1758217;79;21075;-67
2021/06/01 04:34:25;;;;;;;12.60;3.10;;;;;;;13.14;60.53;99709.55;1777921;79;21256;-66
2021/06/01 04:36:52;;;;;;;7.50;2.80;;;;;;;12.86;60.49;99735.19;1748107;80;21780;-66
2021/06/01 04:39:18;;;;;;;7.67;3.10;;;;;;;12.67;60.74;99730.12;1742990;81;21033;-66
2021/06/01 04:41:45;;;;;;;5.67;3.08;;;;;;;12.48;61.04;99728.14;1749859;80;21013;-66
2021/06/01 04:44:12;;;;;;;6.67;3.08;;;;;;;12.34;61.06;99739.84;1757933;80;20981;-66
2021/06/01 04:46:38;;;;;;;8.45;3.27;;;;;;;12.28;61.26;99735.30;1747833;81;21016;-65
2021/06/01 04:49:05;;;;;;;4.70;2.93;;;;;;;12.31;61.31;99737.75;1733306;82;21110;-66
2021/06/01 04:51:32;;;;;;;6.30;3.15;;;;;;;12.27;61.19;99738.86;1743637;80;21120;-66
2021/06/01 04:54:00;;;;;;;5.25;3.00;;;;;;;12.20;61.72;99742.72;1747490;81;21590;-66
2021/06/01 04:56:28;;;;;;;5.05;3.00;;;;;;;12.13;61.59;99751.84;1744605;81;20997;-66
2021/06/01 04:58:56;;;;;;;5.37;3.22;;;;;;;12.10;61.53;99750.70;1744945;81;21006;-65
2021/06/01 05:01:24;;;;;;;7.33;2.90;;;;;;;12.10;61.73;99736.31;1740899;81;21817;-66
2021/06/01 05:03:51;;;;;;;6.15;3.15;;;;;;;12.16;61.79;99738.59;1746801;81;21145;-66
2021/06/01 05:06:18;;;;;;;5.12;3.80;;;;;;;12.13;61.89;99735.27;1735317;81;21032;-66
2021/06/01 05:08:45;;;;;;;4.25;3.02;;;;;;;12.08;62.14;99748.16;1735839;81;21080;-66
2021/06/01 05:11:12;;;;;;;9.43;3.45;;;;;;;12.10;62.13;99749.40;1739530;81;20996;-66
2021/06/01 05:13:38;;;;;;;4.60;3.00;;;;;;;12.17;62.19;99745.51;1757617;81;21146;-65
2021/06/01 05:16:06;;;;;;;4.67;3.30;;;;;;;12.26;62.28;99746.31;1752839;81;21700;-66
2021/06/01 05:18:32;;;;;;;7.50;3.47;;;;;;;12.29;62.35;99755.34;1777015;79;21633;-66
2021/06/01 05:21:21;;;;;;;4.83;2.87;;;;;;;12.31;62.38;99749.53;1748329;80;21479;-66
2021/06/01 05:23:48;;;;;;;4.22;2.62;;;;;;;12.29;62.87;99751.41;1686814;84;21042;-65
2021/06/01 05:26:15;;;;;;;7.33;3.30;;;;;;;12.20;62.55;99724.41;1651207;85;22128;-66
2021/06/01 05:28:42;;;;;;;6.13;3.50;;;;;;;12.23;62.65;99752.19;1692084;83;21408;-65
2021/06/01 05:31:20;;;;;;;4.97;3.40;;;;;;;12.23;62.82;99747.80;1688375;84;21079;-66
2021/06/01 05:33:51;;;;;;;11.18;3.67;;;;;;;12.27;62.85;99741.48;1657958;84;21032;-66
2021/06/01 05:36:15;;;;;;;7.75;3.12;;;;;;;12.36;62.88;99744.53;1689882;81;21023;-65
2021/06/01 05:38:42;;;;;;;6.67;3.52;;;;;;;12.41;62.86;99752.98;1683713;82;21498;-66
2021/06/01 05:41:09;;;;;;;6.15;3.55;;;;;;;12.45;63.04;99746.64;1688596;83;21126;-66
2021/06/01 05:43:36;;;;;;;7.50;2.75;;;;;;;12.63;63.17;99743.47;1692138;84;21051;-66
2021/06/01 05:46:03;;;;;;;;;;;;;;;12.79;63.13;99745.62;1696193;84;21552;-66
2021/06/01 05:48:29;;;;;;;5.40;3.15;;;;;;;12.97;63.30;99754.23;1688402;83;20273;-65
2021/06/01 05:50:57;;;;;;;6.63;3.77;;;;;;;13.07;63.13;99744.90;1679364;84;21026;-66
2021/06/01 05:53:24;;;;;;;5.87;4.17;;;;;;;13.16;63.11;99754.88;1654905;84;21047;-67
2021/06/01 05:55:55;;;;;;;8.88;3.70;;;;;;;13.17;63.21;99751.31;1657411;85;21000;-66
2021/06/01 05:58:23;;;;;;;4.50;3.72;;;;;;;13.25;63.24;99755.25;1679258;84;21134;-67
2021/06/01 06:00:54;;;;;;;7.10;4.22;;;;;;;13.34;63.19;99752.16;1679184;84;21123;-66
2021/06/01 06:03:20;;;;;;;8.50;3.95;;;;;;;13.49;63.46;99751.23;1674995;84;21047;-67
2021/06/01 06:05:48;;;;;;;7.75;4.40;;;;;;;13.73;63.25;99748.12;1669228;84;21074;-67
2021/06/01 06:08:18;;;;;;;6.03;3.65;;;;;;;13.93;63.35;99753.00;1671056;84;21135;-66
2021/06/01 06:10:48;;;;;;;7.60;3.55;;;;;;;14.27;63.60;99753.56;1685528;83;21076;-67
2021/06/01 06:13:18;;;;;;;7.12;4.15;;;;;;;14.51;63.11;99754.66;1680023;83;21595;-66
2021/06/01 06:15:44;;;;;;;5.42;3.50;;;;;;;14.46;62.62;99758.04;1673783;84;21735;-65
2021/06/01 06:18:35;;;;;;;7.87;4.00;;;;;;;14.36;63.07;99759.54;1677912;84;21282;-67
2021/06/01 06:21:06;;;;;;;9.18;4.20;;;;;;;14.47;63.33;99763.66;1686292;83;20975;-67
2021/06/01 06:23:35;;;;;;;6.90;3.65;;;;;;;14.70;63.32;99764.89;1669113;82;21782;-67
2021/06/01 06:26:04;;;;;;;4.78;3.60;;;;;;;15.00;62.92;99754.16;1672795;83;21590;-68
2021/06/01 06:28:31;;;;;;;6.92;3.42;;;;;;;15.09;62.83;99754.03;1715336;81;21759;-66
2021/06/01 06:30:58;;;;;;;;;;;;;;;15.26;62.96;99755.55;1716519;81;22212;-67
2021/06/01 06:33:25;;;;;;;5.65;3.75;;;;;;;15.37;62.77;99753.05;1721240;81;20139;-67
2021/06/01 06:35:53;;;;;;;6.17;3.55;;;;;;;15.54;63.12;99755.03;1689679;83;21023;-66
2021/06/01 06:38:19;;;;;;;4.20;3.15;;;;;;;15.86;62.70;99756.84;1717675;81;21585;-66
2021/06/01 06:41:01;;;;;;;3.75;3.08;;;;;;;15.93;62.79;99753.30;1718009;81;21279;-66
2021/06/01 06:43:15;;;;;;;4.85;3.42;;;;;;;16.18;62.76;99754.59;1682995;83;21051;-67
2021/06/01 06:45:42;;;;;;;5.28;4.03;;;;;;;16.24;62.50;99756.80;1713999;81;21054;-66
2021/06/01 06:48:10;;;;;;;;;;;;;;;16.07;62.13;99753.19;1680673;83;21017;-66
2021/06/01 06:50:38;;;;;;;4.28;3.20;;;;;;;16.07;62.25;99759.77;1714674;81;20715;-66
2021/06/01 06:53:05;;;;;;;6.12;3.72;;;;;;;15.94;62.34;99752.38;1710104;82;21651;-66
2021/06/01 06:55:34;;;;;;;7.62;4.50;;;;;;;15.93;62.49;99755.94;1715260;82;21108;-66
2021/06/01 06:58:00;;;;;;;7.53;4.30;;;;;;;15.85;62.39;99759.95;1709519;81;22238;-66
2021/06/01 07:00:29;;;;;;;7.55;4.53;;;;;;;15.77;62.31;99757.00;1675650;82;21084;-66
2021/06/01 07:02:57;;;;;;;8.70;4.70;;;;;;;15.71;62.28;99757.42;1722098;81;21011;-67
2021/06/01 07:05:24;;;;;;;5.95;4.25;;;;;;;15.73;62.72;99752.88;1723034;81;21018;-67
2021/06/01 07:07:53;;;;;;;8.55;3.92;;;;;;;15.85;62.50;99753.37;1717279;81;26556;-67
2021/06/01 07:10:22;;;;;;;4.78;3.50;;;;;;;16.11;62.64;99747.61;1720872;81;21076;-67
2021/06/01 07:12:49;;;;;;;5.25;3.30;;;;;;;16.64;62.09;99743.92;1676862;84;21071;-67
2021/06/01 07:15:26;;;;;;;3.45;2.80;;;;;;;16.30;61.18;99736.63;1716803;82;21041;-67
2021/06/01 07:17:57;;;;;;;6.10;3.00;;;;;;;16.30;62.67;99736.63;1709930;81;21023;-67
2021/06/01 07:20:26;;;;;;;5.22;2.98;;;;;;;17.06;62.83;99736.02;1685880;82;21034;-68
2021/06/01 07:22:53;;;;;;;4.80;3.55;;;;;;;17.88;62.73;99736.02;1719360;81;20972;-67
2021/06/01 07:25:22;;;;;;;5.85;3.10;;;;;;;17.76;60.81;99741.73;1689946;83;21049;-68
2021/06/01 07:27:50;;;;;;;4.70;3.67;;;;;;;17.69;61.06;99735.23;1694980;83;21741;-67
2021/06/01 07:30:18;;;;;;;6.83;3.65;;;;;;;17.64;61.83;99729.00;1720196;82;21083;-67
2021/06/01 07:32:45;;;;;;;6.00;3.15;;;;;;;17.64;61.10;99734.28;1721502;82;21016;-67
2021/06/01 07:35:15;;;;;;;6.25;3.22;;;;;;;17.34;61.30;99733.48;1721633;82;21577;-67
2021/06/01 07:37:43;;;;;;;4.83;3.08;;;;;;;17.57;61.25;99734.37;1722408;82;20964;-68
2021/06/01 07:40:10;;;;;;;7.20;3.33;;;;;;;17.49;61.24;99731.47;1714705;81;20999;-67
2021/06/01 07:42:37;;;;;;;4.40;3.47;;;;;;;17.42;61.21;99735.52;1716276;81;21075;-67
2021/06/01 07:45:04;;;;;;;6.62;3.55;;;;;;;17.19;61.00;99738.09;1714561;81;21038;-67
2021/06/01 07:47:31;;;;;;;5.12;3.45;;;;;;;16.92;60.91;99737.52;1713579;81;21030;-67
2021/06/01 07:49:57;;;;;;;9.60;4.40;;;;;;;16.69;61.20;99747.91;1719607;82;21556;-67
2021/06/01 07:52:24;;;;;;;6.70;3.98;;;;;;;16.45;61.14;99740.44;1725909;82;20991;-67
2021/06/01 07:54:51;;;;;;;7.28;3.83;;;;;;;16.45;61.79;99744.39;1695190;83;21345;-66
2021/06/01 07:57:17;;;;;;;5.40;3.75;;;;;;;16.62;62.23;99738.75;1686313;82;21140;-67
2021/06/01 07:59:44;;;;;;;8.40;3.47;;;;;;;17.00;61.46;99732.04;1691508;83;21628;-67
2021/06/01 08:02:10;;;;;;;8.60;3.90;;;;;;;16.91;61.32;99733.17;1715352;81;21044;-67
2021/06/01 08:04:37;;;;;;;7.25;4.00;;;;;;;17.04;61.90;99735.77;1679326;83;21046;-67
2021/06/01 08:07:08;;;;;;;7.35;3.85;;;;;;;17.55;62.04;99734.13;1715830;81;21740;-64
2021/06/01 08:09:36;;;;;;;8.65;4.03;;;;;;;18.07;62.22;99724.38;1716853;81;21122;-65
2021/06/01 08:12:04;;;;;;;7.67;3.62;;;;;;;18.41;60.68;99724.34;1720181;81;21023;-65
2021/06/01 08:14:31;;;;;;;7.45;4.03;;;;;;;18.19;60.40;99717.77;1691337;83;21070;-64
2021/06/01 08:16:59;;;;;;;6.67;4.33;;;;;;;18.27;61.46;99712.72;1717233;82;22339;-64
2021/06/01 08:19:32;;;;;;;7.62;4.12;;;;;;;18.71;60.33;99720.22;1719452;81;21053;-64
2021/06/01 08:22:09;;;;;;;10.80;3.90;;;;;;;18.14;58.85;99714.64;1714794;81;21047;-65
2021/06/01 08:24:29;;;;;;;5.17;3.65;;;;;;;17.70;60.31;99709.20;1709289;81;21033;-65
2021/06/01 08:26:56;;;;;;;6.67;3.72;;;;;;;17.27;60.22;99710.30;1683706;82;22234;-66
2021/06/01 08:29:24;;;;;;;4.70;3.25;;;;;;;17.36;61.14;99714.88;1707510;81;21127;-66
2021/06/01 08:31:52;;;;;;;6.87;4.17;;;;;;;17.52;60.10;99714.56;1711473;81;22352;-66
2021/06/01 08:34:19;;;;;;;7.45;3.77;;;;;;;17.80;60.99;99715.95;1684859;83;21589;-67
2021/06/01 08:36:46;;;;;;;8.73;4.85;;;;;;;18.06;60.90;99717.42;1716579;81;21020;-66
2021/06/01 08:39:13;;;;;;;6.53;4.00;;;;;;;18.19;60.26;99719.09;1676132;83;21138;-66
2021/06/01 08:41:42;;;;;;;6.97;4.33;;;;;;;18.12;59.59;99718.74;1721403;81;21068;-66
2021/06/01 08:44:14;;;;;;;12.37;4.20;;;;;;;18.37;60.61;99720.25;1675439;83;21067;-66
2021/06/01 08:46:40;;;;;;;6.95;3.35;;;;;;;18.09;58.49;99721.14;1689975;81;21023;-66
2021/06/01 08:49:14;;;;;;;6.67;3.90;;;;;;;17.55;59.07;99711.69;1715592;81;21014;-66
2021/06/01 08:51:41;;;;;;;11.83;3.98;;;;;;;17.34;59.15;99728.20;1673630;84;21144;-66
2021/06/01 08:54:07;;;;;;;5.50;3.77;;;;;;;17.45;60.22;99727.40;1689041;83;20995;-67
2021/06/01 08:56:34;;;;;;;5.70;3.80;;;;;;;17.41;58.92;99736.48;1697358;82;21616;-69
2021/06/01 08:59:01;;;;;;;6.40;3.72;;;;;;;16.93;58.23;99724.20;1711650;81;21118;-69
2021/06/01 09:01:27;;;;;;;5.83;3.33;;;;;;;17.07;60.16;99725.81;1716280;82;21111;-69
2021/06/01 09:03:58;;;;;;;8.18;4.10;;;;;;;17.68;59.74;99733.08;1711825;82;21687;-69
2021/06/01 09:06:53;;;;;;;6.20;3.30;;;;;;;18.14;59.99;99734.46;1718416;82;21027;-69
2021/06/01 09:22:39;;;;;;;8.90;3.72;;;;;;;17.40;58.73;99735.66;1712192;82;21127;-66
2021/06/01 09:25:23;;;;;;;6.17;4.12;;;;;;;17.73;58.06;99737.14;1673678;83;21190;-66
2021/06/01 09:27:52;;;;;;;8.65;4.00;;;;;;;17.57;57.71;99730.41;1711582;82;21088;-66
2021/06/01 09:30:47;;;;;;;6.75;3.22;;;;;;;17.49;56.66;99728.00;1722527;81;20983;-66
2021/06/01 09:33:22;;;;;;;4.45;3.12;;;;;;;17.59;56.80;99740.39;1698484;82;21693;-66
2021/06/01 09:36:00;;;;;;;8.60;3.25;;;;;;;17.65;56.37;99721.43;1699748;82;21128;-66
2021/06/01 09:38:42;;;;;;;4.20;2.30;;;;;;;17.50;54.89;99715.98;1708203;82;21062;-66
2021/06/01 09:41:18;;;;;;;4.97;3.05;;;;;;;17.31;54.96;99720.52;1685740;82;21307;-66
2021/06/01 09:44:04;;;;;;;6.92;2.85;;;;;;;17.53;55.75;99722.38;1700300;82;21769;-67
2021/06/01 09:46:40;;;;;;;5.65;2.80;;;;;;;17.58;55.54;99717.56;1708329;82;21045;-66
2021/06/01 09:49:18;;;;;;;5.30;2.55;;;;;;;17.62;55.43;99716.39;1707863;81;23147;-66
2021/06/01 09:51:57;;;;;;;6.10;2.22;;;;;;;17.80;54.74;99722.56;1709959;81;21151;-67
2021/06/01 09:54:43;;;;;;;5.95;2.20;;;;;;;17.81;54.02;99717.63;1712571;81;21002;-66
2021/06/01 09:57:24;;;;;;;4.03;2.22;;;;;;;17.87;54.20;99718.02;1669991;83;21157;-70
2021/06/01 10:00:19;;;;;;;4.25;2.20;;;;;;;17.85;53.76;99712.00;1701963;82;21073;-66
2021/06/01 10:02:49;;;;;;;6.97;2.02;;;;;;;17.73;52.75;99725.27;1671872;83;21559;-66
2021/06/01 10:07:48;;;;;;;2.55;1.70;;;;;;;17.70;53.71;99709.66;1819685;77;23606;-66
2021/06/01 10:10:23;;;;;;;3.40;2.05;;;;;;;17.92;53.96;99720.27;1795547;77;21074;-65
2021/06/01 10:12:58;;;;;;;4.12;1.98;;;;;;;18.23;53.85;99710.81;1791521;77;21811;-66
2021/06/01 10:15:29;;;;;;;2.70;1.70;;;;;;;18.06;51.88;99717.42;1762610;80;21771;-66
2021/06/01 10:17:57;;;;;;;4.70;1.80;;;;;;;17.92;52.54;99716.31;1745522;80;21576;-66
2021/06/01 10:20:27;;;;;;;2.33;1.40;;;;;;;17.91;52.64;99713.33;1755747;80;21000;-66
2021/06/01 10:22:55;;;;;;;4.65;1.85;;;;;;;17.77;52.18;99708.24;1750385;80;21020;-66
2021/06/01 10:25:22;;;;;;;2.67;1.67;;;;;;;17.48;52.02;99712.64;1754677;80;21726;-66
2021/06/01 10:27:51;;;;;;;7.28;1.98;;;;;;;17.21;52.21;99707.16;1769446;79;22010;-66
2021/06/01 10:30:19;;;;;;;11.53;2.47;;;;;;;17.01;52.86;99718.37;1748938;80;20988;-66
2021/06/01 10:32:50;;;;;;;4.95;1.80;;;;;;;16.81;52.89;99713.73;1757760;80;21143;-66
2021/06/01 10:35:21;;;;;;;6.17;1.95;;;;;;;16.64;52.80;99726.30;1758823;80;21012;-65
2021/06/01 10:52:04;;;;;;;2.17;1.25;;;;;;;17.20;52.09;99721.31;1751065;80;21033;-66
2021/06/01 10:54:47;;;;;;;3.27;1.20;;;;;;;17.33;50.86;99733.58;1754495;80;21067;-65
2021/06/01 10:57:16;;;;;;;2.37;1.47;;;;;;;17.36;50.97;99735.98;1753462;80;21374;-63
2021/06/01 11:02:30;;;;;;;1.75;1.02;;;;;;;17.14;50.92;99740.25;1758466;79;21641;-66
2021/06/01 11:05:13;;;;;;;1.87;1.00;;;;;;;17.27;51.08;99736.69;1756893;80;20988;-65
2021/06/01 11:08:00;;;;;;;2.72;1.05;;;;;;;17.06;48.71;99733.86;1754992;80;21903;-66
2021/06/01 11:10:46;;;;;;;3.55;1.20;;;;;;;17.09;50.30;99738.42;1757998;80;21187;-64
2021/06/01 11:13:35;;;;;;;3.45;1.10;;;;;;;17.33;50.57;99737.54;1753032;80;21131;-65
2021/06/01 11:16:08;;;;;;;1.90;0.93;;;;;;;17.31;50.09;99744.27;1758958;79;21372;-65
2021/06/01 11:18:40;;;;;;;1.72;1.22;;;;;;;17.16;49.55;99747.55;1756261;79;22319;-65
2021/06/01 11:21:21;;;;;;;1.57;1.05;;;;;;;17.08;49.67;99740.68;1758264;80;21044;-65
2021/06/01 11:33:17;;;;;;;7.80;1.05;;;;;;;17.52;47.68;99744.44;1711302;81;21481;-66
2021/06/01 11:35:49;;;;;;;3.17;0.95;;;;;;;17.47;48.05;99754.50;1710150;82;21320;-65
2021/06/01 11:38:26;;;;;;;1.20;0.80;;;;;;;17.46;48.71;99742.27;1710683;82;21635;-66
2021/06/01 11:43:41;;;;;;;1.10;0.75;;;;;;;17.38;48.18;99744.64;1711195;82;21059;-65
2021/06/01 11:46:22;;;;;;;;;;;;;;;17.17;48.01;99743.98;1712260;82;20976;-65
2021/06/01 11:51:52;;;;;;;2.20;0.90;;;;;;;17.12;47.99;99747.43;1633489;86;21679;-65
2021/06/01 11:54:20;;;;;;;1.30;0.90;;;;;;;17.12;48.27;99750.06;1598498;88;21261;-66
2021/06/01 12:05:20;;;;;;;;;;;;;;;16.65;47.31;99747.75;1631910;85;21149;-67
2021/06/01 12:19:11;;;;;;;9.13;1.20;;;;;;;16.71;47.66;99740.70;1659204;84;21070;-67
2021/06/01 12:21:50;;;;;;;3.77;1.37;;;;;;;16.86;48.01;99745.85;1668125;84;21754;-67
2021/06/01 12:24:25;;;;;;;2.47;0.90;;;;;;;17.06;48.16;99737.34;1675605;83;21079;-67
2021/06/01 12:32:22;;;;;;;4.70;1.20;;;;;;;17.14;47.37;99744.66;1678983;83;21076;-67
2021/06/01 12:43:49;;;;;;;3.90;1.00;;;;;;;16.80;47.73;99751.58;1682189;83;21145;-66
2021/06/01 12:46:29;;;;;;;4.08;1.27;;;;;;;16.66;47.83;99758.64;1688585;81;21067;-66
2021/06/01 13:14:46;;;;;;;;;;;;;;;17.05;48.64;99745.35;1710899;82;21004;-67
2021/06/01 13:32:06;;;;;;;2.17;1.10;;;;;;;16.24;48.91;99766.02;1701552;82;21079;-66
2021/06/01 13:40:34;;;;;;;3.17;1.27;;;;;;;16.20;49.80;99759.28;1685695;83;21673;-66
2021/06/01 13:46:19;;;;;;;3.40;1.22;;;;;;;16.18;49.99;99760.34;1683600;83;21647;-66
2021/06/01 13:51:40;;;;;;;3.95;1.10;;;;;;;16.16;50.72;99751.25;1681381;85;21106;-66
2021/06/01 13:56:45;;;;;;;2.22;1.30;;;;;;;16.23;50.50;99756.44;1679963;83;21101;-67
2021/06/01 13:59:25;;;;;;;5.50;1.10;;;;;;;16.09;50.47;99763.14;1682569;83;21084;-67
2021/06/01 14:15:27;;;;;;;4.40;1.30;;;;;;;16.20;51.09;99764.55;1683156;84;20970;-67
2021/06/01 14:21:00;;;;;;;2.90;0.72;;;;;;;16.29;51.12;99763.91;1676355;84;21602;-67
2021/06/01 14:29:37;;;;;;;5.45;1.00;;;;;;;16.36;50.57;99767.45;1677359;84;26979;-67
2021/06/01 14:57:01;;;;;;;;;;;;;;;16.49;51.53;99788.01;1679486;84;21180;-67
2021/06/01 15:28:43;;;;;;;4.92;0.90;;;;;;;14.17;54.56;99805.81;1710470;80;22290;-66
2021/06/01 15:31:33;;;;;;;3.00;1.15;;;;;;;14.08;55.12;99796.69;1724425;81;20937;-68
2021/06/01 15:50:27;;;;;;;3.90;1.47;;;;;;;14.20;56.29;99812.63;1727041;81;27639;-67
2021/06/01 16:21:24;;;;;;;1.98;0.85;;;;;;;14.48;56.49;99833.67;1617964;87;21888;-68
2021/06/01 16:23:14;;;;;;;2.83;1.20;;;;;;;14.30;56.62;99836.09;1577383;89;21150;-67